createdAt,value
2019-03-06T00:01:58.291Z,49.20
2019-03-06T00:04:28.856Z,49.00
2019-03-06T00:06:59.717Z,49.10
2019-03-06T00:09:30.464Z,49.10
2019-03-06T00:12:00.947Z,49.20
2019-03-06T00:14:31.769Z,49.40
2019-03-06T00:17:02.624Z,49.30
2019-03-06T00:19:33.246Z,49.40
2019-03-06T00:22:04.132Z,49.50
2019-03-06T00:24:34.962Z,49.50
2019-03-06T00:27:06.078Z,49.60
2019-03-06T00:29:36.913Z,49.50
2019-03-06T00:32:07.296Z,49.60
2019-03-06T00:34:41.060Z,49.60
2019-03-06T00:37:12.029Z,49.60
2019-03-06T00:39:44.051Z,49.70
2019-03-06T00:42:14.613Z,50.40
2019-03-06T00:44:45.409Z,50.80
2019-03-06T00:47:16.160Z,51.10
2019-03-06T00:49:46.613Z,51.20
2019-03-06T00:52:17.090Z,51.30
2019-03-06T00:54:47.875Z,51.50
2019-03-06T00:57:18.442Z,51.30
2019-03-06T00:59:49.644Z,51.40
2019-03-06T01:02:19.969Z,51.60
2019-03-06T01:04:50.949Z,51.60
2019-03-06T01:07:21.895Z,50.70
2019-03-06T01:09:52.556Z,50.50
2019-03-06T01:12:23.024Z,50.50
2019-03-06T01:14:53.783Z,51.00
2019-03-06T01:17:24.869Z,50.50
2019-03-06T01:19:55.433Z,50.40
2019-03-06T01:22:25.958Z,50.40
2019-03-06T01:24:56.389Z,50.30
2019-03-06T01:27:27.137Z,50.20
2019-03-06T01:29:57.621Z,50.10
2019-03-06T01:32:28.147Z,50.10
2019-03-06T01:35:05.882Z,50.00
2019-03-06T01:37:37.725Z,50.00
2019-03-06T01:40:11.564Z,50.00
2019-03-06T01:42:43.413Z,49.90
2019-03-06T01:45:14.520Z,49.90
2019-03-06T01:47:45.567Z,49.90
2019-03-06T01:50:16.225Z,49.90
2019-03-06T01:52:46.979Z,49.90
2019-03-06T01:55:17.437Z,49.90
2019-03-06T01:57:48.217Z,49.80
2019-03-06T02:00:19.787Z,49.70
2019-03-06T02:02:50.785Z,49.70
2019-03-06T02:05:21.794Z,49.70
2019-03-06T02:07:53.488Z,49.70
2019-03-06T02:10:24.069Z,49.80
2019-03-06T02:12:54.499Z,49.80
2019-03-06T02:15:25.312Z,49.70
2019-03-06T02:17:55.897Z,49.60
2019-03-06T02:20:26.356Z,49.70
2019-03-06T02:22:56.804Z,49.70
2019-03-06T02:25:27.699Z,49.70
2019-03-06T02:27:58.538Z,49.60
2019-03-06T02:30:29.297Z,49.60
2019-03-06T02:32:59.820Z,49.60
2019-03-06T02:35:30.662Z,49.80
2019-03-06T02:38:01.348Z,49.60
2019-03-06T02:40:31.969Z,49.50
2019-03-06T02:43:02.513Z,49.60
2019-03-06T02:45:33.224Z,49.60
2019-03-06T02:48:03.959Z,49.60
2019-03-06T02:50:34.582Z,49.60
2019-03-06T02:53:05.575Z,49.70
2019-03-06T02:55:35.971Z,49.60
2019-03-06T02:58:24.967Z,49.40
2019-03-06T03:01:00.273Z,49.50
2019-03-06T03:03:38.786Z,49.50
2019-03-06T03:06:14.150Z,49.50
2019-03-06T03:08:44.688Z,49.50
2019-03-06T03:11:15.352Z,49.50
2019-03-06T03:13:46.012Z,49.50
2019-03-06T03:16:16.688Z,49.50
2019-03-06T03:18:49.331Z,49.50
2019-03-06T03:21:19.977Z,49.40
2019-03-06T03:23:50.461Z,49.40
2019-03-06T03:26:21.248Z,49.40
2019-03-06T03:28:51.842Z,49.40
2019-03-06T03:31:22.725Z,49.40
2019-03-06T03:33:53.182Z,49.40
2019-03-06T03:36:23.530Z,49.40
2019-03-06T03:38:54.763Z,49.30
2019-03-06T03:41:25.666Z,49.30
2019-03-06T03:43:56.813Z,49.30
2019-03-06T03:46:27.707Z,49.30
2019-03-06T03:48:58.155Z,49.30
2019-03-06T03:51:29.135Z,49.30
2019-03-06T03:53:59.546Z,49.30
2019-03-06T03:56:30.456Z,49.20
2019-03-06T03:59:01.374Z,49.20
2019-03-06T04:01:32.014Z,49.20
2019-03-06T04:04:03.032Z,49.20
2019-03-06T04:06:33.862Z,49.30
2019-03-06T04:09:05.457Z,49.30
2019-03-06T04:11:35.964Z,49.30
2019-03-06T04:14:06.998Z,49.20
2019-03-06T04:16:37.705Z,49.20
2019-03-06T04:19:08.113Z,49.20
2019-03-06T04:21:38.575Z,49.30
2019-03-06T04:24:09.063Z,49.30
2019-03-06T04:26:39.493Z,49.30
2019-03-06T04:29:10.283Z,49.20
2019-03-06T04:31:40.967Z,49.20
2019-03-06T04:34:11.860Z,49.20
2019-03-06T04:36:42.705Z,49.30
2019-03-06T04:39:13.347Z,49.30
2019-03-06T04:41:43.998Z,49.20
2019-03-06T04:44:14.741Z,49.30
2019-03-06T04:46:45.633Z,49.30
2019-03-06T04:49:16.091Z,49.20
2019-03-06T04:51:46.688Z,49.20
2019-03-06T04:54:17.531Z,49.20
2019-03-06T04:56:48.369Z,49.20
2019-03-06T04:59:19.164Z,48.60
2019-03-06T05:01:50.096Z,49.10
2019-03-06T05:04:20.765Z,49.00
2019-03-06T05:06:51.634Z,49.30
2019-03-06T05:09:22.529Z,50.20
2019-03-06T05:11:53.358Z,50.70
2019-03-06T05:14:23.834Z,51.00
2019-03-06T05:16:58.560Z,51.10
2019-03-06T05:19:29.524Z,51.30
2019-03-06T05:22:00.043Z,51.40
2019-03-06T05:24:30.446Z,51.60
2019-03-06T05:27:00.906Z,51.70
2019-03-06T05:29:31.330Z,51.80
2019-03-06T05:32:26.113Z,51.80
2019-03-06T05:34:57.418Z,51.90
2019-03-06T05:38:00.836Z,52.00
2019-03-06T05:40:31.531Z,52.70
2019-03-06T05:43:02.124Z,52.10
2019-03-06T05:45:32.957Z,52.20
2019-03-06T05:48:04.788Z,52.30
2019-03-06T05:50:35.518Z,52.30
2019-03-06T05:53:22.248Z,52.40
2019-03-06T05:55:52.696Z,52.40
2019-03-06T05:58:23.470Z,52.40
2019-03-06T06:00:54.421Z,52.40
2019-03-06T06:03:24.873Z,52.60
2019-03-06T06:05:55.599Z,52.60
2019-03-06T06:08:26.402Z,52.60
2019-03-06T06:10:57.154Z,52.70
2019-03-06T06:13:28.074Z,52.70
2019-03-06T06:15:58.549Z,52.60
2019-03-06T06:18:29.611Z,52.70
2019-03-06T06:21:10.532Z,52.80
2019-03-06T06:23:42.560Z,52.80
2019-03-06T06:26:13.405Z,52.80
2019-03-06T06:28:43.792Z,52.80
2019-03-06T06:31:14.687Z,52.80
2019-03-06T06:33:45.616Z,52.90
2019-03-06T06:36:16.415Z,53.00
2019-03-06T06:38:47.438Z,53.00
2019-03-06T06:41:18.252Z,52.90
2019-03-06T06:43:48.835Z,52.90
2019-03-06T06:46:19.614Z,52.90
2019-03-06T06:48:50.435Z,53.00
2019-03-06T06:51:29.403Z,53.00
2019-03-06T06:54:11.595Z,53.00
2019-03-06T06:57:13.523Z,53.00
2019-03-06T06:59:55.122Z,53.10
2019-03-06T07:02:41.293Z,53.00
2019-03-06T07:05:28.960Z,53.00
2019-03-06T07:08:03.920Z,53.00
2019-03-06T07:10:48.461Z,53.10
2019-03-06T07:13:23.564Z,53.10
2019-03-06T07:16:04.322Z,53.10
2019-03-06T07:18:36.394Z,53.20
2019-03-06T07:21:20.803Z,53.10
2019-03-06T07:23:52.933Z,53.10
2019-03-06T07:26:41.288Z,53.10
2019-03-06T07:29:13.516Z,53.10
2019-03-06T07:31:48.824Z,53.20
2019-03-06T07:34:29.197Z,53.10
2019-03-06T07:37:10.331Z,53.10
2019-03-06T07:39:42.568Z,53.10
2019-03-06T07:42:20.550Z,53.20
2019-03-06T07:45:30.956Z,53.20
2019-03-06T07:48:05.972Z,53.20
2019-03-06T07:50:47.057Z,53.20
2019-03-06T07:53:33.356Z,53.20
2019-03-06T07:56:05.660Z,53.20
2019-03-06T07:58:52.866Z,53.20
2019-03-06T08:01:24.673Z,53.20
2019-03-06T08:03:57.817Z,53.20
2019-03-06T08:06:28.606Z,53.30
2019-03-06T08:08:58.988Z,53.30
2019-03-06T08:11:40.272Z,53.20
2019-03-06T08:14:21.783Z,53.20
2019-03-06T08:16:49.040Z,53.20
2019-03-06T08:19:20.772Z,53.20
2019-03-06T08:22:04.816Z,53.30
2019-03-06T08:24:42.877Z,53.20
2019-03-06T08:27:13.409Z,53.20
2019-03-06T08:29:44.060Z,53.20
2019-03-06T08:32:16.229Z,53.20
2019-03-06T08:34:47.011Z,53.20
2019-03-06T08:37:17.729Z,53.20
2019-03-06T08:39:48.272Z,53.30
2019-03-06T08:42:19.151Z,53.20
2019-03-06T08:44:49.820Z,53.20
2019-03-06T08:47:28.140Z,53.30
2019-03-06T08:50:00.501Z,53.30
2019-03-06T08:52:38.833Z,53.30
2019-03-06T08:55:14.953Z,53.30
2019-03-06T08:57:47.009Z,53.30
2019-03-06T09:00:26.278Z,53.30
2019-03-06T09:03:08.962Z,53.30
2019-03-06T09:05:57.460Z,53.30
2019-03-06T09:08:45.946Z,53.30
2019-03-06T09:11:24.020Z,53.30
2019-03-06T09:14:05.399Z,53.30
2019-03-06T09:16:54.015Z,53.30
2019-03-06T09:19:31.585Z,53.30
2019-03-06T09:22:03.825Z,53.30
2019-03-06T09:24:47.302Z,53.30
2019-03-06T09:27:22.406Z,53.30
2019-03-06T09:29:57.257Z,53.30
2019-03-06T09:32:43.931Z,53.30
2019-03-06T09:35:32.500Z,54.00
2019-03-06T09:38:20.191Z,53.30
2019-03-06T09:41:10.745Z,53.30
2019-03-06T09:43:42.581Z,53.30
2019-03-06T09:46:17.869Z,53.30
2019-03-06T09:48:49.853Z,53.30
2019-03-06T09:51:33.976Z,53.30
2019-03-06T09:54:12.100Z,53.30
2019-03-06T09:56:53.301Z,53.30
2019-03-06T09:59:28.431Z,53.30
2019-03-06T10:02:06.828Z,53.30
2019-03-06T10:04:39.879Z,53.30
2019-03-06T10:07:28.162Z,53.40
2019-03-06T10:10:18.622Z,53.30
2019-03-06T10:12:53.972Z,53.30
2019-03-06T10:15:26.234Z,53.30
2019-03-06T10:18:00.791Z,53.40
2019-03-06T10:20:31.818Z,53.30
2019-03-06T10:23:02.575Z,53.30
2019-03-06T10:25:33.059Z,53.30
2019-03-06T10:28:06.614Z,53.30
2019-03-06T10:30:36.435Z,54.00
2019-03-06T10:33:07.370Z,53.40
2019-03-06T10:35:38.054Z,53.30
2019-03-06T10:38:16.425Z,53.30
2019-03-06T10:40:41.092Z,53.30
2019-03-06T10:43:11.901Z,53.40
2019-03-06T10:45:42.500Z,53.40
2019-03-06T10:48:13.203Z,53.50
2019-03-06T10:50:44.101Z,54.10
2019-03-06T10:53:14.961Z,53.70
2019-03-06T10:55:45.560Z,53.80
2019-03-06T10:58:16.523Z,53.90
2019-03-06T11:00:54.681Z,53.90
2019-03-06T11:03:27.053Z,53.90
2019-03-06T11:05:57.890Z,54.00
2019-03-06T11:08:28.526Z,53.90
2019-03-06T11:10:59.038Z,53.90
2019-03-06T11:13:29.778Z,53.80
2019-03-06T11:16:00.221Z,53.80
2019-03-06T11:18:30.714Z,53.70
2019-03-06T11:21:01.185Z,53.60
2019-03-06T11:23:31.730Z,53.60
2019-03-06T11:26:02.809Z,53.60
2019-03-06T11:28:33.679Z,53.60
2019-03-06T11:31:07.861Z,53.50
2019-03-06T11:33:38.851Z,53.40
2019-03-06T11:36:09.596Z,53.50
2019-03-06T11:38:40.468Z,53.50
2019-03-06T11:41:11.226Z,53.50
2019-03-06T11:43:41.580Z,53.40
2019-03-06T11:46:13.001Z,53.40
2019-03-06T11:48:43.597Z,53.40
2019-03-06T11:51:13.953Z,53.40
2019-03-06T11:53:44.648Z,53.30
2019-03-06T11:56:15.349Z,53.30
2019-03-06T11:58:46.376Z,53.30
2019-03-06T12:01:19.811Z,53.30
2019-03-06T12:03:50.953Z,53.30
2019-03-06T12:06:21.586Z,53.40
2019-03-06T12:08:52.371Z,53.40
2019-03-06T12:11:22.818Z,53.40
2019-03-06T12:13:53.845Z,53.40
2019-03-06T12:16:24.808Z,53.40
2019-03-06T12:18:55.543Z,53.40
2019-03-06T12:21:26.558Z,53.30
2019-03-06T12:23:57.444Z,53.30
2019-03-06T12:26:28.048Z,53.30
2019-03-06T12:28:58.657Z,53.40
2019-03-06T12:31:29.536Z,53.30
2019-03-06T12:34:00.318Z,53.30
2019-03-06T12:36:31.048Z,53.40
2019-03-06T12:39:02.100Z,53.40
2019-03-06T12:41:32.938Z,53.40
2019-03-06T12:44:10.178Z,53.40
2019-03-06T12:46:35.565Z,53.40
2019-03-06T12:49:06.105Z,53.40
2019-03-06T12:51:36.985Z,53.30
2019-03-06T12:54:07.464Z,53.40
2019-03-06T12:56:38.580Z,53.40
2019-03-06T12:59:09.442Z,53.40
2019-03-06T13:01:40.427Z,53.50
2019-03-06T13:04:11.035Z,53.60
2019-03-06T13:06:41.698Z,54.20
2019-03-06T13:09:14.813Z,53.50
2019-03-06T13:11:45.661Z,53.40
2019-03-06T13:14:16.492Z,53.50
2019-03-06T13:16:47.462Z,53.40
2019-03-06T13:19:17.923Z,53.40
2019-03-06T13:21:48.850Z,53.40
2019-03-06T13:24:19.437Z,53.40
2019-03-06T13:26:50.305Z,53.40
2019-03-06T13:29:21.012Z,53.50
2019-03-06T13:31:51.843Z,53.60
2019-03-06T13:34:23.625Z,53.70
2019-03-06T13:36:54.128Z,53.70
2019-03-06T13:39:24.813Z,53.60
2019-03-06T13:41:55.937Z,53.50
2019-03-06T13:44:26.677Z,53.40
2019-03-06T13:46:57.646Z,53.50
2019-03-06T13:49:28.152Z,53.50
2019-03-06T13:51:58.920Z,53.50
2019-03-06T13:54:29.694Z,53.50
2019-03-06T13:57:00.603Z,53.60
2019-03-06T13:59:31.380Z,53.60
2019-03-06T14:02:02.536Z,53.70
2019-03-06T14:04:33.173Z,53.60
2019-03-06T14:07:03.868Z,53.60
2019-03-06T14:09:34.337Z,53.60
2019-03-06T14:12:05.292Z,53.50
2019-03-06T14:14:35.816Z,53.50
2019-03-06T14:17:08.229Z,53.50
2019-03-06T14:19:38.677Z,53.50
2019-03-06T14:22:09.350Z,53.60
2019-03-06T14:24:40.209Z,53.70
2019-03-06T14:27:11.805Z,53.70
2019-03-06T14:29:42.632Z,53.70
2019-03-06T14:32:14.947Z,53.70
2019-03-06T14:34:45.708Z,53.60
2019-03-06T14:37:16.162Z,53.60
2019-03-06T14:39:46.725Z,53.50
2019-03-06T14:42:17.575Z,53.60
2019-03-06T14:44:48.465Z,53.60
2019-03-06T14:47:20.348Z,53.80
2019-03-06T14:49:51.158Z,53.90
2019-03-06T14:52:21.930Z,53.90
2019-03-06T14:54:52.818Z,53.90
2019-03-06T14:57:23.270Z,53.80
2019-03-06T14:59:54.035Z,53.80
2019-03-06T15:02:24.927Z,53.70
2019-03-06T15:04:55.682Z,53.80
2019-03-06T15:07:26.453Z,53.70
2019-03-06T15:09:57.318Z,53.80
2019-03-06T15:12:28.480Z,53.90
2019-03-06T15:14:58.980Z,53.90
2019-03-06T15:17:29.567Z,54.10
2019-03-06T15:20:00.542Z,54.10
2019-03-06T15:22:38.303Z,54.00
2019-03-06T15:25:04.717Z,54.20
2019-03-06T15:27:35.421Z,54.10
2019-03-06T15:30:07.881Z,54.30
2019-03-06T15:32:38.637Z,54.30
2019-03-06T15:35:10.456Z,54.80
2019-03-06T15:37:42.548Z,55.20
2019-03-06T15:40:24.711Z,55.00
2019-03-06T15:42:55.808Z,55.20
2019-03-06T15:45:32.770Z,55.00
2019-03-06T15:48:03.195Z,55.30
2019-03-06T15:50:34.036Z,56.40
2019-03-06T15:53:04.375Z,56.70
2019-03-06T15:55:35.083Z,56.80
2019-03-06T15:58:05.906Z,57.30
2019-03-06T16:00:45.959Z,58.10
2019-03-06T16:03:11.639Z,58.50
2019-03-06T16:05:42.725Z,58.80
2019-03-06T16:08:14.440Z,59.20
2019-03-06T16:10:45.279Z,59.50
2019-03-06T16:13:16.033Z,59.70
2019-03-06T16:15:46.743Z,60.00
2019-03-06T16:18:17.274Z,58.80
2019-03-06T16:20:47.760Z,58.90
2019-03-06T16:23:18.430Z,59.50
2019-03-06T16:25:48.945Z,59.50
2019-03-06T16:28:19.556Z,60.00
2019-03-06T16:30:50.495Z,59.90
2019-03-06T16:33:21.482Z,60.40
2019-03-06T16:35:52.444Z,60.30
2019-03-06T16:38:23.046Z,60.30
2019-03-06T16:40:53.671Z,61.40
2019-03-06T16:43:24.052Z,61.60
2019-03-06T16:45:55.240Z,62.10
2019-03-06T16:48:25.684Z,62.60
2019-03-06T16:50:56.215Z,62.70
2019-03-06T16:53:26.588Z,62.80
2019-03-06T16:55:56.964Z,61.10
2019-03-06T16:58:27.615Z,60.90
2019-03-06T17:00:58.129Z,60.80
2019-03-06T17:03:28.729Z,60.50
2019-03-06T17:05:59.710Z,60.50
2019-03-06T17:08:30.384Z,60.40
2019-03-06T17:11:00.850Z,60.40
2019-03-06T17:13:31.557Z,60.30
2019-03-06T17:16:02.221Z,60.10
2019-03-06T17:18:32.739Z,60.00
2019-03-06T17:21:03.211Z,59.70
2019-03-06T17:23:33.713Z,59.70
2019-03-06T17:26:04.227Z,59.60
2019-03-06T17:28:34.762Z,59.50
2019-03-06T17:31:05.357Z,59.40
2019-03-06T17:33:35.893Z,59.30
2019-03-06T17:36:06.477Z,59.20
2019-03-06T17:38:36.990Z,59.10
2019-03-06T17:41:07.727Z,59.10
2019-03-06T17:43:38.732Z,59.00
2019-03-06T17:46:09.658Z,58.90
2019-03-06T17:48:40.084Z,58.90
2019-03-06T17:51:10.637Z,58.80
2019-03-06T17:53:41.200Z,58.80
2019-03-06T17:56:12.814Z,58.70
2019-03-06T17:58:43.269Z,59.40
2019-03-06T18:01:15.143Z,59.70
2019-03-06T18:03:52.884Z,59.50
2019-03-06T18:06:23.683Z,59.50
2019-03-06T18:08:54.315Z,59.40
2019-03-06T18:11:24.853Z,59.30
2019-03-06T18:13:55.591Z,59.80
2019-03-06T18:16:27.325Z,61.30
2019-03-06T18:19:00.421Z,60.00
2019-03-06T18:21:31.040Z,59.50
2019-03-06T18:24:01.616Z,59.20
2019-03-06T18:26:31.988Z,59.10
2019-03-06T18:29:02.589Z,59.10
2019-03-06T18:31:33.503Z,59.00
2019-03-06T18:34:04.196Z,58.90
2019-03-06T18:36:34.593Z,58.90
2019-03-06T18:39:07.168Z,58.90
2019-03-06T18:41:37.623Z,59.00
2019-03-06T18:44:08.571Z,59.10
2019-03-06T18:46:38.953Z,59.70
2019-03-06T18:49:09.464Z,59.80
2019-03-06T18:51:40.116Z,60.00
2019-03-06T18:54:10.566Z,60.40
2019-03-06T18:56:42.694Z,60.40
2019-03-06T18:59:13.700Z,60.40
2019-03-06T19:01:44.038Z,60.90
2019-03-06T19:04:15.382Z,60.90
2019-03-06T19:06:45.961Z,61.60
2019-03-06T19:09:16.416Z,61.70
2019-03-06T19:11:47.371Z,62.20
2019-03-06T19:14:17.976Z,62.60
2019-03-06T19:16:49.178Z,63.20
2019-03-06T19:19:19.533Z,63.70
2019-03-06T19:21:49.999Z,64.10
2019-03-06T19:24:20.505Z,62.80
2019-03-06T19:26:50.965Z,61.90
2019-03-06T19:29:21.432Z,61.50
2019-03-06T19:31:52.015Z,59.80
2019-03-06T19:34:22.433Z,59.80
2019-03-06T19:36:53.031Z,59.60
2019-03-06T19:39:23.525Z,59.00
2019-03-06T19:41:53.907Z,59.30
2019-03-06T19:44:24.513Z,59.00
2019-03-06T19:46:55.048Z,58.30
2019-03-06T19:49:25.533Z,58.00
2019-03-06T19:51:56.244Z,59.10
2019-03-06T19:54:26.697Z,59.40
2019-03-06T19:56:57.266Z,59.50
2019-03-06T19:59:27.752Z,59.60
2019-03-06T20:01:58.336Z,60.10
2019-03-06T20:04:28.831Z,59.50
2019-03-06T20:06:59.404Z,59.50
2019-03-06T20:09:30.266Z,58.80
2019-03-06T20:12:00.811Z,59.30
2019-03-06T20:14:31.585Z,57.70
2019-03-06T20:17:02.267Z,59.00
2019-03-06T20:19:33.342Z,58.50
2019-03-06T20:22:03.978Z,58.00
2019-03-06T20:24:34.485Z,57.70
2019-03-06T20:27:05.232Z,57.00
2019-03-06T20:29:35.873Z,56.40
2019-03-06T20:32:09.296Z,57.10
2019-03-06T20:34:39.852Z,54.50
2019-03-06T20:37:10.293Z,56.00
2019-03-06T20:39:40.899Z,55.30
2019-03-06T20:42:12.884Z,54.50
2019-03-06T20:44:43.535Z,54.50
2019-03-06T20:47:15.052Z,53.60
2019-03-06T20:49:45.942Z,53.40
2019-03-06T20:52:17.191Z,56.30
2019-03-06T20:54:47.916Z,56.20
2019-03-06T20:57:18.417Z,56.90
2019-03-06T20:59:49.375Z,55.50
2019-03-06T21:02:21.273Z,56.20
2019-03-06T21:04:53.403Z,55.80
2019-03-06T21:07:24.083Z,54.80
2019-03-06T21:09:54.514Z,54.50
2019-03-06T21:12:24.975Z,54.50
2019-03-06T21:14:55.772Z,55.00
2019-03-06T21:17:26.442Z,56.20
2019-03-06T21:19:57.860Z,56.20
2019-03-06T21:22:28.650Z,56.20
2019-03-06T21:24:59.032Z,56.30
2019-03-06T21:27:29.475Z,52.90
2019-03-06T21:29:59.990Z,54.00
2019-03-06T21:32:31.925Z,53.10
2019-03-06T21:35:02.461Z,55.10
2019-03-06T21:37:32.854Z,53.10
2019-03-06T21:40:03.539Z,53.80
2019-03-06T21:42:34.350Z,55.10
2019-03-06T21:45:06.620Z,55.20
2019-03-06T21:47:39.480Z,56.50
2019-03-06T21:50:13.754Z,55.20
2019-03-06T21:52:44.645Z,52.50
2019-03-06T21:55:16.136Z,54.70
2019-03-06T21:57:48.666Z,55.70
2019-03-06T22:00:23.629Z,55.60
2019-03-06T22:02:55.728Z,55.70
2019-03-06T22:05:26.236Z,55.70
2019-03-06T22:07:56.770Z,55.60
2019-03-06T22:10:27.560Z,55.80
2019-03-06T22:12:57.981Z,56.10
2019-03-06T22:15:28.546Z,55.80
2019-03-06T22:17:59.052Z,56.10
2019-03-06T22:20:29.741Z,55.30
2019-03-06T22:23:00.516Z,56.00
2019-03-06T22:25:31.054Z,55.30
2019-03-06T22:28:04.093Z,54.00
2019-03-06T22:30:35.694Z,55.40
2019-03-06T22:33:06.137Z,55.40
2019-03-06T22:35:36.811Z,55.40
2019-03-06T22:38:07.490Z,55.00
2019-03-06T22:40:38.081Z,55.60
2019-03-06T22:43:08.550Z,55.00
2019-03-06T22:45:41.279Z,54.60
2019-03-06T22:48:12.027Z,54.40
2019-03-06T22:50:42.585Z,55.30
2019-03-06T22:53:13.387Z,55.50
2019-03-06T22:55:43.970Z,56.00
2019-03-06T22:58:14.488Z,55.40
2019-03-06T23:00:51.548Z,54.40
2019-03-06T23:03:22.668Z,55.00
2019-03-06T23:05:53.246Z,54.70
2019-03-06T23:08:23.910Z,56.50
2019-03-06T23:10:54.413Z,55.20
2019-03-06T23:13:25.281Z,54.80
2019-03-06T23:15:55.800Z,53.00
2019-03-06T23:18:28.806Z,55.00
2019-03-06T23:20:59.497Z,56.40
2019-03-06T23:23:30.350Z,55.80
2019-03-06T23:26:01.028Z,56.10
2019-03-06T23:28:31.457Z,55.80
2019-03-06T23:31:01.928Z,54.20
2019-03-06T23:33:32.393Z,54.20
2019-03-06T23:36:03.207Z,54.90
2019-03-06T23:38:34.118Z,53.60
2019-03-06T23:41:04.769Z,53.20
2019-03-06T23:43:35.613Z,54.00
2019-03-06T23:46:06.405Z,54.30
2019-03-06T23:48:37.143Z,53.00
2019-03-06T23:51:10.562Z,52.30
2019-03-06T23:53:45.104Z,53.70
2019-03-06T23:56:15.736Z,53.00
2019-03-06T23:58:46.215Z,54.40
